Time;durP1;ratioP1;P1;durP2;ratioP2;P2;SDS_P1;SDS_P2;PMS_P1;PMS_P2;Temp;Humidity;BMP_temperature;BMP_pressure;BME280_temperature;BME280_humidity;BME280_pressure;Samples;Min_cycle;Max_cycle;Signal;HPM_P1;HPM_P2
2021/03/10 00:01:25;;;;;;;29.57;22.63;;;9.90;82.20;;;;;;5029270;28;20639;-54
2021/03/10 00:03:52;;;;;;;30.20;23.07;;;9.90;82.60;;;;;;5030651;28;20696;-54
2021/03/10 00:06:19;;;;;;;24.50;20.50;;;9.90;82.50;;;;;;5030469;28;21173;-53
2021/03/10 00:08:46;;;;;;;29.70;22.83;;;9.90;82.50;;;;;;5028557;28;20791;-55
2021/03/10 00:11:13;;;;;;;30.03;23.27;;;9.90;82.50;;;;;;5029237;28;21412;-54
2021/03/10 00:13:40;;;;;;;28.37;21.17;;;9.90;82.60;;;;;;5010974;28;21199;-54
2021/03/10 00:16:08;;;;;;;25.23;22.10;;;10.00;81.10;;;;;;5010649;28;20685;-53
2021/03/10 00:18:34;;;;;;;27.33;22.70;;;10.00;80.90;;;;;;5010286;28;20708;-54
2021/03/10 00:21:02;;;;;;;27.00;20.30;;;10.00;80.90;;;;;;5015627;28;21158;-54
2021/03/10 00:23:29;;;;;;;25.27;21.10;;;10.00;80.80;;;;;;5030151;28;20631;-54
2021/03/10 00:25:56;;;;;;;28.43;22.03;;;10.00;80.90;;;;;;5029053;28;20651;-55
2021/03/10 00:28:23;;;;;;;29.13;20.13;;;9.90;82.30;;;;;;5029835;28;20733;-54
2021/03/10 00:30:49;;;;;;;29.67;23.07;;;9.90;82.40;;;;;;5030056;28;20685;-54
2021/03/10 00:33:16;;;;;;;28.43;20.57;;;9.70;83.10;;;;;;5020976;28;20779;-54
2021/03/10 00:35:43;;;;;;;29.87;25.10;;;9.60;83.90;;;;;;5018526;28;20764;-54
2021/03/10 00:38:10;;;;;;;32.87;23.30;;;9.60;84.20;;;;;;5028226;28;20658;-54
2021/03/10 00:40:37;;;;;;;29.60;23.00;;;9.60;84.20;;;;;;5029375;28;21239;-54
2021/03/10 00:43:04;;;;;;;31.77;24.87;;;9.60;84.40;;;;;;5029270;28;20669;-54
2021/03/10 00:45:31;;;;;;;26.67;20.30;;;9.60;84.40;;;;;;5029743;28;21030;-54
2021/03/10 00:47:58;;;;;;;32.23;22.97;;;9.70;84.00;;;;;;5029279;28;20708;-55
2021/03/10 00:50:26;;;;;;;30.83;23.10;;;9.60;83.90;;;;;;5029686;28;20646;-54
2021/03/10 00:52:53;;;;;;;27.60;23.10;;;9.60;84.50;;;;;;5028950;28;20634;-55
2021/03/10 00:55:21;;;;;;;30.63;25.63;;;9.60;84.60;;;;;;5029922;28;20775;-54
2021/03/10 00:57:48;;;;;;;28.63;22.07;;;9.60;84.90;;;;;;5029476;28;20650;-55
2021/03/10 01:00:17;;;;;;;29.50;21.30;;;9.60;84.90;;;;;;5029687;28;20629;-54
2021/03/10 01:02:44;;;;;;;29.03;21.60;;;9.60;84.60;;;;;;5029589;28;20730;-55
2021/03/10 01:05:12;;;;;;;32.10;24.03;;;9.60;84.60;;;;;;5030082;28;20623;-53
2021/03/10 01:07:38;;;;;;;30.67;23.17;;;9.60;84.60;;;;;;5033811;28;20655;-53
2021/03/10 01:10:06;;;;;;;31.37;26.40;;;9.70;84.40;;;;;;5033841;28;20666;-55
2021/03/10 01:12:33;;;;;;;34.70;25.27;;;9.70;84.20;;;;;;5032457;28;20654;-54
2021/03/10 01:15:00;;;;;;;31.63;23.87;;;9.70;84.10;;;;;;5033878;28;21224;-55
2021/03/10 01:17:27;;;;;;;35.00;24.10;;;9.70;83.90;;;;;;5019791;28;20666;-55
2021/03/10 01:19:54;;;;;;;29.10;22.80;;;9.70;84.00;;;;;;5013651;28;20708;-54
2021/03/10 01:22:20;;;;;;;31.47;23.57;;;9.70;84.20;;;;;;5031386;28;21050;-55
2021/03/10 01:24:47;;;;;;;29.63;25.60;;;9.70;84.30;;;;;;5033583;28;20642;-55
2021/03/10 01:27:17;;;;;;;26.93;21.07;;;9.70;84.30;;;;;;5033040;28;20952;-54
2021/03/10 01:29:45;;;;;;;31.37;24.57;;;9.70;84.30;;;;;;5033063;28;21205;-55
2021/03/10 01:32:12;;;;;;;32.97;24.70;;;9.70;84.50;;;;;;5033503;28;20637;-55
2021/03/10 01:34:38;;;;;;;30.90;23.33;;;9.70;84.40;;;;;;5034124;28;20695;-55
2021/03/10 01:37:05;;;;;;;31.07;24.10;;;9.70;84.40;;;;;;5034322;28;20714;-55
2021/03/10 01:39:32;;;;;;;33.13;25.60;;;9.70;84.40;;;;;;5033959;28;21077;-55
2021/03/10 01:41:59;;;;;;;33.03;25.93;;;9.70;84.10;;;;;;5033325;28;20744;-55
2021/03/10 01:44:25;;;;;;;29.33;23.33;;;9.70;84.00;;;;;;5027577;28;21206;-54
2021/03/10 01:46:53;;;;;;;30.67;22.93;;;9.70;83.80;;;;;;5033001;28;20627;-55
2021/03/10 01:49:20;;;;;;;25.20;21.20;;;9.80;83.60;;;;;;5032224;28;20702;-55
2021/03/10 01:51:46;;;;;;;28.10;23.90;;;9.80;83.40;;;;;;5033102;28;20627;-54
2021/03/10 01:54:13;;;;;;;32.10;22.70;;;9.80;83.20;;;;;;5032706;28;20631;-55
2021/03/10 01:56:40;;;;;;;29.93;22.97;;;9.80;83.10;;;;;;5032292;28;20630;-54
2021/03/10 01:59:07;;;;;;;33.33;24.80;;;9.70;83.10;;;;;;5032418;28;20623;-55
2021/03/10 02:01:34;;;;;;;29.00;23.70;;;9.70;83.50;;;;;;5029603;28;20634;-56
2021/03/10 02:04:03;;;;;;;30.73;21.70;;;9.70;83.50;;;;;;5032861;28;21083;-55
2021/03/10 02:06:37;;;;;;;30.67;24.40;;;9.70;83.20;;;;;;5032567;28;20679;-56
2021/03/10 02:09:06;;;;;;;31.73;25.73;;;9.50;83.30;;;;;;5032395;28;20650;-55
2021/03/10 02:11:36;;;;;;;35.87;25.37;;;9.50;84.30;;;;;;5030986;28;21048;-55
2021/03/10 02:14:07;;;;;;;28.17;22.90;;;9.50;84.40;;;;;;5032716;28;20706;-55
2021/03/10 02:16:39;;;;;;;30.10;23.33;;;9.50;84.60;;;;;;5030423;28;20630;-55
2021/03/10 02:19:18;;;;;;;25.73;21.07;;;9.50;84.50;;;;;;5029873;28;20631;-53
2021/03/10 02:21:49;;;;;;;26.90;21.03;;;9.40;84.20;;;;;;5032195;28;20722;-55
2021/03/10 02:24:24;;;;;;;28.50;21.37;;;9.40;84.20;;;;;;5032156;28;20625;-55
2021/03/10 02:27:33;;;;;;;26.97;21.20;;;9.40;84.20;;;;;;5032110;28;20633;-55
2021/03/10 02:30:04;;;;;;;31.10;21.13;;;9.30;83.70;;;;;;5015677;28;20674;-54
2021/03/10 02:32:34;;;;;;;26.33;19.93;;;9.10;84.50;;;;;;5032301;28;20637;-55
2021/03/10 02:35:01;;;;;;;27.93;20.60;;;9.10;84.80;;;;;;5032203;28;20626;-54
2021/03/10 02:37:28;;;;;;;27.43;20.80;;;9.10;85.20;;;;;;5031868;28;20685;-54
2021/03/10 02:39:56;;;;;;;24.50;19.67;;;9.00;85.20;;;;;;5031208;28;20605;-54
2021/03/10 02:42:23;;;;;;;25.17;20.10;;;9.00;85.70;;;;;;5032742;28;20609;-54
2021/03/10 02:44:49;;;;;;;24.83;20.40;;;8.90;85.80;;;;;;5031179;28;20685;-54
2021/03/10 02:47:17;;;;;;;26.03;20.77;;;8.90;86.00;;;;;;5031960;28;20708;-54
2021/03/10 02:49:44;;;;;;;25.67;20.30;;;8.90;86.20;;;;;;5030446;28;21000;-55
2021/03/10 02:52:11;;;;;;;26.27;20.10;;;8.90;86.20;;;;;;5031745;28;20679;-55
2021/03/10 02:54:38;;;;;;;25.67;19.60;;;9.00;86.40;;;;;;5031951;28;20630;-55
2021/03/10 02:57:05;;;;;;;23.93;20.50;;;9.00;86.00;;;;;;5031188;28;21056;-54
2021/03/10 02:59:32;;;;;;;20.80;17.33;;;9.00;85.30;;;;;;5031187;28;20774;-55
2021/03/10 03:01:59;;;;;;;26.97;20.60;;;9.00;85.10;;;;;;5031971;28;21036;-55
2021/03/10 03:04:26;;;;;;;25.87;19.67;;;9.00;85.20;;;;;;5031863;28;21035;-54
2021/03/10 03:06:53;;;;;;;28.03;20.80;;;8.90;85.20;;;;;;5031653;28;20711;-56
2021/03/10 03:09:20;;;;;;;22.93;20.10;;;8.90;85.60;;;;;;5030933;28;20770;-54
2021/03/10 03:11:47;;;;;;;24.40;18.23;;;8.90;85.70;;;;;;5029797;28;20979;-56
2021/03/10 03:14:13;;;;;;;22.43;19.27;;;9.00;85.40;;;;;;5031749;28;20649;-55
2021/03/10 03:16:40;;;;;;;24.47;18.77;;;9.00;85.10;;;;;;5025186;28;20691;-54
2021/03/10 03:19:07;;;;;;;24.00;19.60;;;9.00;85.20;;;;;;5031062;28;20633;-55
2021/03/10 03:21:35;;;;;;;22.10;17.87;;;9.00;85.20;;;;;;5031442;28;21021;-56
2021/03/10 03:24:02;;;;;;;23.90;19.93;;;9.00;85.00;;;;;;5030619;28;20676;-55
2021/03/10 03:26:29;;;;;;;22.97;19.60;;;9.00;85.10;;;;;;5030930;28;20641;-54
2021/03/10 03:28:55;;;;;;;25.10;21.03;;;9.10;85.10;;;;;;5108525;22;21342;-51
2021/03/10 03:31:22;;;;;;;23.47;20.30;;;9.10;84.90;;;;;;5113297;28;20672;-52
2021/03/10 03:33:49;;;;;;;25.77;20.33;;;9.20;84.90;;;;;;5113147;28;20638;-51
2021/03/10 03:36:16;;;;;;;29.17;21.40;;;9.20;84.40;;;;;;5112722;28;20706;-51
2021/03/10 03:38:43;;;;;;;23.83;19.90;;;9.30;84.00;;;;;;5107570;28;20708;-52
2021/03/10 03:41:10;;;;;;;29.10;24.23;;;9.30;84.80;;;;;;5112703;28;20638;-51
2021/03/10 03:43:37;;;;;;;31.33;23.47;;;9.30;84.40;;;;;;5112257;27;20637;-51
2021/03/10 03:46:05;;;;;;;34.57;21.57;;;9.40;84.10;;;;;;5112986;28;21246;-51
2021/03/10 03:48:31;;;;;;;27.40;20.87;;;9.30;84.70;;;;;;5110619;27;21211;-52
2021/03/10 03:50:58;;;;;;;28.90;21.27;;;9.40;84.10;;;;;;5112711;28;20659;-52
2021/03/10 03:53:25;;;;;;;27.93;21.50;;;9.30;83.70;;;;;;5098022;28;20630;-52
2021/03/10 03:55:53;;;;;;;30.00;22.43;;;9.40;83.50;;;;;;5092158;28;21037;-52
2021/03/10 03:58:19;;;;;;;24.00;20.63;;;9.30;83.40;;;;;;5108813;28;20794;-52
2021/03/10 04:00:46;;;;;;;28.67;23.10;;;9.30;83.70;;;;;;5111994;28;21037;-52
2021/03/10 04:03:13;;;;;;;25.83;20.80;;;9.30;83.80;;;;;;5112559;28;20620;-52
2021/03/10 04:05:40;;;;;;;25.43;20.60;;;9.30;83.80;;;;;;5112732;28;20619;-53
2021/03/10 04:08:07;;;;;;;29.07;21.67;;;9.20;83.70;;;;;;5111565;27;20754;-52
2021/03/10 04:10:34;;;;;;;30.30;22.73;;;9.10;84.20;;;;;;5112368;28;21125;-52
2021/03/10 04:13:02;;;;;;;27.47;21.67;;;9.10;84.80;;;;;;5111904;28;20677;-53
2021/03/10 04:15:30;;;;;;;26.77;21.63;;;9.20;84.90;;;;;;5095146;28;20628;-52
2021/03/10 04:17:56;;;;;;;31.80;22.60;;;9.20;84.70;;;;;;5105018;28;21202;-52
2021/03/10 04:20:23;;;;;;;26.07;20.70;;;9.20;84.60;;;;;;5110291;28;21028;-51
2021/03/10 04:22:50;;;;;;;36.87;24.00;;;9.20;84.60;;;;;;5100801;28;20631;-52
2021/03/10 04:25:17;;;;;;;33.70;22.77;;;9.20;84.80;;;;;;5091913;28;20630;-52
2021/03/10 04:27:44;;;;;;;30.80;22.53;;;9.20;84.70;;;;;;5102507;28;20666;-52
2021/03/10 04:30:13;;;;;;;28.93;25.80;;;9.20;85.20;;;;;;5112258;28;20654;-52
2021/03/10 04:32:40;;;;;;;30.57;23.70;;;9.20;85.30;;;;;;5111889;28;20981;-51
2021/03/10 04:35:08;;;;;;;29.43;23.60;;;9.20;85.50;;;;;;5111968;28;21022;-51
2021/03/10 04:37:35;;;;;;;33.53;26.13;;;9.20;85.50;;;;;;5109486;28;20659;-51
2021/03/10 04:40:02;;;;;;;30.17;23.83;;;9.20;85.70;;;;;;5111425;28;21178;-50
2021/03/10 04:42:29;;;;;;;36.10;26.93;;;9.20;85.50;;;;;;5111033;28;20775;-51
2021/03/10 04:44:56;;;;;;;31.53;25.53;;;9.20;85.50;;;;;;5097107;28;20632;-51
2021/03/10 04:47:23;;;;;;;37.90;27.63;;;9.10;85.60;;;;;;5101264;28;20654;-51
2021/03/10 04:49:50;;;;;;;36.37;26.10;;;9.10;85.80;;;;;;5111593;28;20662;-50
2021/03/10 04:52:17;;;;;;;36.17;27.33;;;9.10;86.00;;;;;;5111245;28;20630;-51
2021/03/10 04:54:43;;;;;;;34.70;25.70;;;9.20;86.00;;;;;;5111427;28;20671;-51
2021/03/10 04:57:10;;;;;;;34.10;24.90;;;9.20;86.00;;;;;;5111722;28;21024;-51
2021/03/10 04:59:37;;;;;;;30.47;21.63;;;9.20;85.90;;;;;;5111895;28;20676;-50
2021/03/10 05:02:04;;;;;;;33.70;25.47;;;9.10;86.60;;;;;;5111547;28;20690;-51
2021/03/10 05:04:31;;;;;;;30.63;25.27;;;9.10;86.20;;;;;;5111563;28;20671;-51
2021/03/10 05:06:58;;;;;;;34.70;27.43;;;8.90;86.60;;;;;;5103008;28;20631;-52
2021/03/10 05:09:25;;;;;;;37.20;28.97;;;8.90;87.20;;;;;;5109538;28;20658;-51
2021/03/10 05:11:51;;;;;;;35.60;26.93;;;8.90;87.50;;;;;;5111218;28;20630;-51
2021/03/10 05:14:18;;;;;;;35.33;27.70;;;8.90;87.90;;;;;;5111237;28;20633;-51
2021/03/10 05:16:45;;;;;;;38.63;26.60;;;8.90;87.80;;;;;;5111595;28;20630;-52
2021/03/10 05:19:12;;;;;;;37.57;29.03;;;8.90;87.70;;;;;;5110980;28;21270;-51
2021/03/10 05:21:39;;;;;;;31.87;23.90;;;8.90;87.80;;;;;;5103962;28;20628;-54
2021/03/10 05:24:07;;;;;;;34.80;26.93;;;8.90;88.00;;;;;;5091220;28;20676;-52
2021/03/10 05:26:34;;;;;;;38.13;30.10;;;8.80;87.60;;;;;;5108599;28;20683;-51
2021/03/10 05:29:01;;;;;;;34.90;26.10;;;8.80;88.20;;;;;;5110697;28;20670;-52
2021/03/10 05:31:28;;;;;;;33.30;26.40;;;8.80;88.60;;;;;;5111090;28;20631;-50
2021/03/10 05:33:54;;;;;;;33.30;26.60;;;8.70;89.30;;;;;;5111193;28;21170;-52
2021/03/10 05:36:22;;;;;;;35.33;26.00;;;8.70;89.40;;;;;;5104103;28;20688;-52
2021/03/10 05:38:49;;;;;;;37.00;28.90;;;8.70;89.30;;;;;;5090218;28;20652;-51
2021/03/10 05:41:16;;;;;;;38.50;28.83;;;8.70;89.40;;;;;;5098424;28;20626;-52
2021/03/10 05:43:43;;;;;;;36.70;27.30;;;8.60;89.40;;;;;;5109742;28;21122;-52
2021/03/10 05:46:10;;;;;;;37.30;29.10;;;8.70;89.50;;;;;;5110879;28;20648;-52
2021/03/10 05:48:36;;;;;;;36.00;27.97;;;8.70;89.60;;;;;;5110706;28;20661;-52
2021/03/10 05:51:04;;;;;;;35.03;26.60;;;8.70;89.60;;;;;;5106583;28;20667;-53
2021/03/10 05:53:32;;;;;;;38.50;26.83;;;8.80;89.40;;;;;;5100768;28;20626;-52
2021/03/10 05:56:00;;;;;;;36.80;28.13;;;8.80;89.40;;;;;;5115175;27;20687;-52
2021/03/10 05:58:27;;;;;;;38.47;29.43;;;8.80;89.30;;;;;;5114500;28;20726;-52
2021/03/10 06:00:53;;;;;;;33.10;25.67;;;8.80;89.40;;;;;;5101505;28;21239;-52
2021/03/10 06:03:20;;;;;;;38.07;27.13;;;8.80;89.40;;;;;;5099370;28;21579;-53
2021/03/10 06:05:57;;;;;;;37.63;29.43;;;8.80;89.40;;;;;;5110448;28;21024;-53
2021/03/10 06:08:30;;;;;;;37.93;26.47;;;8.80;89.00;;;;;;5093755;28;20671;-53
2021/03/10 06:10:57;;;;;;;33.70;25.97;;;8.80;88.40;;;;;;5097451;28;20685;-53
2021/03/10 06:13:26;;;;;;;38.93;28.50;;;8.80;89.10;;;;;;5114320;28;20626;-52
2021/03/10 06:15:53;;;;;;;34.53;27.50;;;8.70;89.40;;;;;;5114452;28;20637;-53
2021/03/10 06:18:24;;;;;;;41.10;29.87;;;8.70;89.90;;;;;;5114665;28;20654;-54
2021/03/10 06:21:02;;;;;;;35.60;27.70;;;8.70;90.00;;;;;;5114398;28;20633;-54
2021/03/10 06:23:31;;;;;;;37.03;27.13;;;8.80;90.00;;;;;;5114152;27;20963;-53
2021/03/10 06:25:58;;;;;;;35.53;29.13;;;8.80;90.00;;;;;;5114050;28;20623;-52
2021/03/10 06:28:35;;;;;;;38.37;29.07;;;8.70;89.90;;;;;;5111532;28;20722;-52
2021/03/10 06:31:02;;;;;;;37.30;28.77;;;8.70;90.00;;;;;;5113420;28;20711;-52
2021/03/10 06:33:29;;;;;;;40.50;27.47;;;8.70;90.10;;;;;;5113966;28;20626;-52
2021/03/10 06:35:55;;;;;;;38.07;27.27;;;8.80;90.00;;;;;;5100495;28;21102;-51
2021/03/10 06:38:22;;;;;;;37.03;28.80;;;8.80;89.90;;;;;;5092985;28;20655;-51
2021/03/10 06:40:53;;;;;;;38.97;27.37;;;8.80;90.00;;;;;;5107923;28;20626;-51
2021/03/10 06:43:21;;;;;;;43.47;28.47;;;8.80;89.50;;;;;;5112872;28;20622;-52
2021/03/10 06:45:48;;;;;;;47.13;30.13;;;8.80;90.00;;;;;;5113699;28;20623;-50
2021/03/10 06:48:16;;;;;;;34.83;27.90;;;8.80;90.10;;;;;;5113091;28;20670;-53
2021/03/10 06:50:43;;;;;;;39.70;26.73;;;8.70;90.10;;;;;;5110742;28;20738;-53
2021/03/10 06:53:10;;;;;;;37.63;29.00;;;8.80;90.20;;;;;;5110724;28;20630;-51
2021/03/10 06:55:38;;;;;;;39.93;30.97;;;8.80;90.00;;;;;;5113372;28;20630;-51
2021/03/10 06:58:05;;;;;;;35.60;27.53;;;8.90;90.10;;;;;;5112562;28;21344;-53
2021/03/10 07:00:32;;;;;;;35.73;27.77;;;9.00;89.90;;;;;;5103581;28;20627;-53
2021/03/10 07:03:00;;;;;;;37.77;28.47;;;9.00;89.40;;;;;;5092233;28;20668;-52
2021/03/10 07:05:28;;;;;;;34.70;28.17;;;9.00;90.10;;;;;;5093022;28;20632;-53
2021/03/10 07:07:56;;;;;;;44.20;29.50;;;9.10;89.90;;;;;;5098667;28;20758;-52
2021/03/10 07:10:23;;;;;;;37.90;26.43;;;9.10;89.30;;;;;;5106134;28;20660;-53
2021/03/10 07:12:50;;;;;;;37.23;27.67;;;9.20;89.20;;;;;;5094003;28;20624;-53
2021/03/10 07:15:18;;;;;;;38.10;28.60;;;9.20;88.90;;;;;;5092304;28;20635;-52
2021/03/10 07:17:45;;;;;;;31.73;24.47;;;9.30;88.60;;;;;;5097048;28;20651;-51
2021/03/10 07:20:13;;;;;;;33.00;28.10;;;9.40;88.20;;;;;;5113658;27;20707;-51
2021/03/10 07:22:41;;;;;;;30.47;23.53;;;9.30;86.70;;;;;;5111584;28;20746;-53
2021/03/10 07:25:10;;;;;;;34.53;26.17;;;9.30;87.20;;;;;;5113274;28;21175;-54
2021/03/10 07:27:38;;;;;;;31.00;25.57;;;9.30;87.30;;;;;;5112325;28;20659;-52
2021/03/10 07:30:05;;;;;;;29.60;23.63;;;9.30;86.70;;;;;;5113086;28;20704;-51
2021/03/10 07:32:32;;;;;;;33.27;22.83;;;9.30;86.90;;;;;;5100754;28;20623;-51
2021/03/10 07:35:03;;;;;;;23.97;19.03;;;9.20;86.50;;;;;;5103462;28;20623;-51
2021/03/10 07:37:31;;;;;;;27.30;21.00;;;9.10;86.80;;;;;;5112421;28;20716;-52
2021/03/10 07:40:08;;;;;;;32.83;24.70;;;9.00;88.10;;;;;;5112575;28;20623;-51
2021/03/10 07:42:35;;;;;;;35.93;27.53;;;9.00;88.50;;;;;;5107419;28;20628;-51
2021/03/10 07:45:01;;;;;;;31.43;25.00;;;9.10;88.50;;;;;;5097611;28;20688;-52
2021/03/10 07:47:28;;;;;;;33.60;24.00;;;9.10;88.00;;;;;;5111914;28;20716;-52
2021/03/10 07:49:58;;;;;;;34.77;27.87;;;9.20;87.60;;;;;;5110095;28;20708;-52
2021/03/10 07:52:28;;;;;;;34.13;23.77;;;9.20;88.20;;;;;;5102510;28;20632;-53
2021/03/10 07:54:59;;;;;;;31.53;27.00;;;9.30;87.80;;;;;;5107255;28;20652;-53
2021/03/10 07:57:25;;;;;;;34.60;28.50;;;9.30;87.30;;;;;;5107839;28;20655;-52
2021/03/10 07:59:53;;;;;;;39.03;27.63;;;9.40;87.40;;;;;;5095288;28;20620;-52
2021/03/10 08:02:20;;;;;;;32.63;27.50;;;9.40;86.90;;;;;;5098408;28;21230;-52
2021/03/10 08:04:53;;;;;;;35.67;25.90;;;9.50;86.30;;;;;;5096424;28;20628;-51
2021/03/10 08:07:21;;;;;;;28.27;22.97;;;9.60;85.70;;;;;;5094045;28;20656;-52
2021/03/10 08:09:49;;;;;;;31.70;22.90;;;9.60;85.20;;;;;;5110086;27;20979;-53
2021/03/10 08:12:18;;;;;;;35.60;26.00;;;9.60;84.80;;;;;;5111217;28;21141;-52
2021/03/10 08:14:45;;;;;;;35.37;25.60;;;9.60;85.00;;;;;;5104338;28;20625;-53
2021/03/10 08:17:20;;;;;;;29.23;24.50;;;9.60;84.90;;;;;;5091532;28;21309;-52
2021/03/10 08:19:51;;;;;;;37.70;26.23;;;9.60;84.60;;;;;;5096565;28;20622;-54
2021/03/10 08:22:18;;;;;;;30.40;24.03;;;9.50;85.10;;;;;;5112078;28;20623;-54
2021/03/10 08:24:45;;;;;;;32.43;25.27;;;9.60;85.80;;;;;;5110836;28;20631;-54
2021/03/10 08:27:11;;;;;;;28.90;23.40;;;9.60;85.90;;;;;;5106264;28;20620;-52
2021/03/10 08:29:47;;;;;;;30.73;24.87;;;9.60;85.40;;;;;;5110752;28;20759;-52
2021/03/10 08:32:22;;;;;;;31.87;25.57;;;9.70;85.30;;;;;;5106503;27;20675;-52
2021/03/10 08:34:49;;;;;;;30.90;24.10;;;9.70;85.20;;;;;;5111293;28;20684;-53
2021/03/10 08:37:16;;;;;;;28.03;23.93;;;9.80;84.60;;;;;;5104177;28;21239;-53
2021/03/10 08:39:43;;;;;;;28.93;24.20;;;9.80;84.00;;;;;;5091019;28;20623;-53
2021/03/10 08:42:10;;;;;;;29.50;26.30;;;9.90;83.90;;;;;;5106301;28;21194;-52
2021/03/10 08:44:41;;;;;;;29.47;22.30;;;9.90;83.50;;;;;;5111406;28;20616;-52
2021/03/10 08:47:12;;;;;;;30.77;25.67;;;10.00;81.90;;;;;;5111322;28;20631;-53
2021/03/10 08:49:38;;;;;;;31.63;25.33;;;10.00;81.90;;;;;;5111927;28;20623;-53
2021/03/10 08:52:10;;;;;;;28.57;24.13;;;10.00;81.20;;;;;;5111452;28;20717;-53
2021/03/10 08:54:50;;;;;;;28.80;25.27;;;10.00;81.10;;;;;;5111614;28;20627;-53
2021/03/10 08:57:17;;;;;;;35.30;26.10;;;10.00;81.40;;;;;;5111313;28;21172;-52
2021/03/10 08:59:44;;;;;;;29.43;24.40;;;10.00;81.70;;;;;;5111015;28;20627;-53
2021/03/10 09:02:12;;;;;;;28.70;23.17;;;10.00;81.60;;;;;;5110984;28;20673;-53
2021/03/10 09:04:45;;;;;;;31.30;25.70;;;10.10;81.50;;;;;;5111926;28;20690;-53
2021/03/10 09:07:12;;;;;;;33.30;26.10;;;10.20;80.90;;;;;;5110973;28;20831;-52
2021/03/10 09:09:39;;;;;;;36.00;26.43;;;10.20;80.20;;;;;;5111341;28;20615;-54
2021/03/10 09:12:06;;;;;;;33.87;26.10;;;10.20;80.60;;;;;;5111174;28;20659;-53
2021/03/10 09:14:35;;;;;;;28.20;24.20;;;10.30;80.70;;;;;;5100189;28;20616;-54
2021/03/10 09:17:01;;;;;;;31.10;25.40;;;10.40;79.60;;;;;;5090789;28;20619;-52
2021/03/10 09:19:33;;;;;;;33.70;26.27;;;10.40;79.20;;;;;;5103006;28;20623;-53
2021/03/10 09:22:18;;;;;;;33.30;26.83;;;10.50;79.10;;;;;;5091040;28;21257;-54
2021/03/10 09:24:49;;;;;;;33.03;25.40;;;10.50;79.00;;;;;;5105621;28;21198;-54
2021/03/10 09:27:20;;;;;;;30.07;24.87;;;10.70;79.00;;;;;;5099791;28;20643;-51
2021/03/10 09:29:47;;;;;;;25.90;21.57;;;10.70;77.80;;;;;;5114144;28;20616;-53
2021/03/10 09:32:13;;;;;;;26.97;24.17;;;10.80;76.90;;;;;;5098736;28;20654;-51
2021/03/10 09:34:41;;;;;;;26.23;23.43;;;10.80;76.60;;;;;;5115303;28;20722;-51
2021/03/10 09:37:09;;;;;;;25.17;22.43;;;10.90;76.20;;;;;;5115465;28;20689;-54
2021/03/10 09:39:40;;;;;;;24.07;21.47;;;11.00;76.30;;;;;;5114759;28;20623;-52
2021/03/10 09:42:07;;;;;;;27.93;22.70;;;11.00;75.20;;;;;;5115458;28;20627;-52
2021/03/10 09:44:41;;;;;;;27.73;22.00;;;11.00;75.40;;;;;;5114327;28;20634;-52
2021/03/10 09:47:19;;;;;;;25.03;21.60;;;10.90;76.10;;;;;;5114835;28;21172;-51
2021/03/10 09:49:48;;;;;;;27.90;24.97;;;10.90;74.70;;;;;;5114689;28;20750;-53
2021/03/10 09:52:15;;;;;;;29.17;22.70;;;10.90;74.80;;;;;;5114775;28;20662;-53
2021/03/10 09:54:52;;;;;;;28.30;23.20;;;10.90;74.90;;;;;;5114652;28;21215;-54
2021/03/10 09:57:22;;;;;;;30.73;24.20;;;10.90;73.90;;;;;;5114769;28;20650;-51
2021/03/10 09:59:50;;;;;;;31.47;25.10;;;10.90;74.40;;;;;;5109109;28;20620;-53
2021/03/10 10:02:17;;;;;;;28.40;21.53;;;11.10;74.70;;;;;;5114620;28;20616;-54
2021/03/10 10:04:44;;;;;;;27.57;24.30;;;11.10;74.10;;;;;;5114542;28;20630;-53
2021/03/10 10:07:13;;;;;;;28.57;22.00;;;11.20;74.30;;;;;;5096674;28;20634;-53
2021/03/10 10:09:40;;;;;;;27.00;22.70;;;11.30;72.60;;;;;;5093510;28;20628;-53
2021/03/10 10:12:07;;;;;;;26.73;23.83;;;11.30;72.10;;;;;;5093728;28;20702;-53
2021/03/10 10:14:34;;;;;;;27.00;21.67;;;11.30;71.70;;;;;;5093951;28;20616;-53
2021/03/10 10:17:01;;;;;;;29.40;25.73;;;11.40;71.00;;;;;;5094543;28;20715;-52
2021/03/10 10:19:28;;;;;;;27.60;22.77;;;11.40;70.80;;;;;;5093624;28;20657;-52
2021/03/10 10:21:55;;;;;;;25.17;22.47;;;11.50;70.90;;;;;;5101185;28;21025;-53
2021/03/10 10:24:22;;;;;;;27.37;22.53;;;11.50;71.10;;;;;;5114107;28;20619;-50
2021/03/10 10:26:49;;;;;;;26.50;23.50;;;11.60;70.90;;;;;;5114181;28;20663;-53
2021/03/10 10:29:16;;;;;;;27.10;23.03;;;11.60;69.20;;;;;;5112261;28;20732;-52
2021/03/10 10:31:43;;;;;;;27.70;22.07;;;11.70;68.40;;;;;;5108722;28;20717;-53
2021/03/10 10:34:10;;;;;;;26.13;22.63;;;11.70;68.20;;;;;;5114085;28;20692;-52
2021/03/10 10:36:37;;;;;;;26.20;22.70;;;11.70;68.40;;;;;;5102133;28;20697;-54
2021/03/10 10:39:05;;;;;;;31.20;25.47;;;11.80;68.50;;;;;;5099654;28;20662;-54
2021/03/10 10:41:32;;;;;;;33.97;24.97;;;11.90;68.40;;;;;;5105865;28;20953;-53
2021/03/10 10:43:59;;;;;;;27.67;23.27;;;11.80;67.80;;;;;;5099228;28;20619;-52
2021/03/10 10:46:26;;;;;;;32.83;25.10;;;11.90;67.70;;;;;;5112954;28;21029;-52
2021/03/10 10:48:53;;;;;;;29.40;24.30;;;11.90;67.00;;;;;;5100213;28;20718;-53
2021/03/10 10:51:21;;;;;;;30.13;23.37;;;12.00;66.70;;;;;;5099564;28;20644;-53
2021/03/10 10:53:48;;;;;;;26.47;22.90;;;12.10;65.30;;;;;;5108342;28;20680;-52
2021/03/10 10:56:15;;;;;;;29.20;24.33;;;12.10;65.30;;;;;;5111205;28;20665;-53
2021/03/10 10:58:43;;;;;;;29.93;25.37;;;12.10;66.20;;;;;;5099288;28;20643;-52
2021/03/10 11:01:10;;;;;;;26.23;23.43;;;12.10;65.50;;;;;;5112875;28;20676;-53
2021/03/10 11:03:37;;;;;;;25.27;21.90;;;12.10;65.60;;;;;;5112806;28;20783;-52
2021/03/10 11:06:04;;;;;;;28.30;22.73;;;12.20;66.40;;;;;;5112129;28;20624;-54
2021/03/10 11:08:31;;;;;;;24.47;19.70;;;12.30;66.00;;;;;;5100796;28;20704;-51
2021/03/10 11:10:57;;;;;;;24.10;21.50;;;12.30;63.10;;;;;;5112418;28;20717;-54
2021/03/10 11:13:24;;;;;;;18.40;15.00;;;12.40;63.00;;;;;;5112785;28;20680;-53
2021/03/10 11:15:52;;;;;;;17.43;15.53;;;12.40;58.70;;;;;;5111338;28;20732;-51
2021/03/10 11:18:19;;;;;;;19.30;13.90;;;12.40;58.00;;;;;;5111403;28;21056;-52
2021/03/10 11:20:45;;;;;;;15.90;11.17;;;12.30;56.90;;;;;;5112147;28;20614;-52
2021/03/10 11:23:12;;;;;;;13.40;10.50;;;12.40;55.40;;;;;;5111937;28;20628;-52
2021/03/10 11:25:39;;;;;;;15.00;12.43;;;12.40;54.70;;;;;;5112334;28;20623;-52
2021/03/10 11:28:06;;;;;;;15.03;13.50;;;12.40;54.10;;;;;;5111624;28;20707;-52
2021/03/10 11:30:33;;;;;;;15.83;12.20;;;12.40;54.50;;;;;;5112253;28;20629;-52
2021/03/10 11:33:01;;;;;;;15.57;12.47;;;12.40;54.20;;;;;;5108265;28;20631;-52
2021/03/10 11:35:27;;;;;;;17.20;13.87;;;12.50;54.70;;;;;;5108461;28;20649;-53
2021/03/10 11:37:54;;;;;;;14.57;13.07;;;12.70;54.00;;;;;;5107258;28;20696;-53
2021/03/10 11:40:21;;;;;;;13.20;11.80;;;12.90;53.20;;;;;;5102841;28;20683;-53
2021/03/10 11:42:48;;;;;;;18.77;13.97;;;13.00;52.80;;;;;;5106756;28;21171;-53
2021/03/10 11:45:15;;;;;;;17.87;15.20;;;12.80;52.30;;;;;;5107575;28;20679;-53
2021/03/10 11:47:42;;;;;;;9.77;8.50;;;12.70;52.50;;;;;;5107024;28;20683;-51
2021/03/10 11:50:12;;;;;;;15.33;11.90;;;12.70;52.70;;;;;;5106786;27;20665;-52
2021/03/10 11:52:38;;;;;;;14.73;13.13;;;12.70;52.90;;;;;;5111475;28;20843;-52
2021/03/10 11:55:06;;;;;;;19.40;11.80;;;12.90;53.40;;;;;;5111853;28;20630;-53
2021/03/10 11:57:33;;;;;;;17.97;15.17;;;13.00;53.00;;;;;;5111634;28;21160;-51
2021/03/10 12:00:00;;;;;;;19.20;16.03;;;13.10;53.30;;;;;;5108196;28;21112;-53
2021/03/10 12:02:27;;;;;;;11.93;10.63;;;13.10;53.30;;;;;;5108314;27;20619;-51
2021/03/10 12:04:53;;;;;;;16.00;14.30;;;13.20;52.80;;;;;;5104341;28;20624;-52
2021/03/10 12:07:22;;;;;;;16.40;12.90;;;13.00;52.80;;;;;;5108353;28;20713;-53
2021/03/10 12:09:49;;;;;;;18.20;14.70;;;13.20;52.90;;;;;;5091935;28;20632;-52
2021/03/10 12:12:16;;;;;;;18.63;14.27;;;13.30;52.70;;;;;;5106880;28;20680;-52
2021/03/10 12:14:44;;;;;;;18.60;14.23;;;13.50;52.30;;;;;;5104032;28;20681;-53
2021/03/10 12:17:10;;;;;;;15.10;13.40;;;13.60;51.80;;;;;;5109353;28;21024;-51
2021/03/10 12:19:38;;;;;;;14.40;12.60;;;13.80;51.00;;;;;;5089755;28;20632;-51
2021/03/10 12:22:06;;;;;;;16.53;14.27;;;14.00;50.00;;;;;;5111758;28;21249;-51
2021/03/10 12:24:34;;;;;;;13.20;11.80;;;13.90;49.10;;;;;;5105894;28;20684;-52
2021/03/10 12:27:01;;;;;;;14.80;13.17;;;13.80;49.60;;;;;;5108798;28;20634;-51
2021/03/10 12:29:27;;;;;;;15.50;13.67;;;13.50;49.60;;;;;;5105499;28;20680;-51
2021/03/10 12:31:55;;;;;;;17.47;15.60;;;13.30;50.50;;;;;;5099105;28;20648;-52
2021/03/10 12:34:21;;;;;;;16.37;14.60;;;13.30;51.00;;;;;;5111360;28;20628;-52
2021/03/10 12:36:48;;;;;;;15.13;13.37;;;13.30;51.50;;;;;;5111380;28;20631;-52